sensor_id;sensor_type;location;lat;lon;timestamp;temperature;humidity
32476;DHT22;18929;48.008;10.882;2023-05-10T00:02:06;17.80;99.90
32476;DHT22;18929;48.008;10.882;2023-05-10T00:04:33;17.60;99.90
32476;DHT22;18929;48.008;10.882;2023-05-10T00:07:01;17.70;99.90
32476;DHT22;18929;48.008;10.882;2023-05-10T00:09:28;17.70;99.90
32476;DHT22;18929;48.008;10.882;2023-05-10T00:11:55;17.30;99.90
32476;DHT22;18929;48.008;10.882;2023-05-10T00:14:23;17.70;99.90
32476;DHT22;18929;48.008;10.882;2023-05-10T00:16:50;17.60;99.90
32476;DHT22;18929;48.008;10.882;2023-05-10T00:19:17;17.20;99.90
32476;DHT22;18929;48.008;10.882;2023-05-10T00:21:44;17.50;99.90
32476;DHT22;18929;48.008;10.882;2023-05-10T00:24:12;17.70;99.90
32476;DHT22;18929;48.008;10.882;2023-05-10T00:26:39;17.70;99.90
32476;DHT22;18929;48.008;10.882;2023-05-10T00:29:07;17.70;99.90
32476;DHT22;18929;48.008;10.882;2023-05-10T00:31:34;17.80;99.90
32476;DHT22;18929;48.008;10.882;2023-05-10T00:34:01;17.70;99.90
32476;DHT22;18929;48.008;10.882;2023-05-10T00:36:27;17.80;99.90
32476;DHT22;18929;48.008;10.882;2023-05-10T00:38:54;17.80;99.90
32476;DHT22;18929;48.008;10.882;2023-05-10T00:41:22;17.60;99.90
32476;DHT22;18929;48.008;10.882;2023-05-10T00:43:49;17.50;99.90
32476;DHT22;18929;48.008;10.882;2023-05-10T00:46:16;17.50;99.90
32476;DHT22;18929;48.008;10.882;2023-05-10T00:48:43;17.60;99.90
32476;DHT22;18929;48.008;10.882;2023-05-10T00:51:10;17.60;99.90
32476;DHT22;18929;48.008;10.882;2023-05-10T00:53:37;17.50;99.90
32476;DHT22;18929;48.008;10.882;2023-05-10T00:56:04;17.40;99.90
32476;DHT22;18929;48.008;10.882;2023-05-10T00:58:33;17.50;99.90
32476;DHT22;18929;48.008;10.882;2023-05-10T01:00:59;17.50;99.90
32476;DHT22;18929;48.008;10.882;2023-05-10T01:03:26;17.50;99.90
32476;DHT22;18929;48.008;10.882;2023-05-10T01:05:54;17.20;99.90
32476;DHT22;18929;48.008;10.882;2023-05-10T01:08:21;17.30;99.90
32476;DHT22;18929;48.008;10.882;2023-05-10T01:10:48;17.40;99.90
32476;DHT22;18929;48.008;10.882;2023-05-10T01:13:17;17.40;99.90
32476;DHT22;18929;48.008;10.882;2023-05-10T01:15:45;17.50;99.90
32476;DHT22;18929;48.008;10.882;2023-05-10T01:18:12;17.60;99.90
32476;DHT22;18929;48.008;10.882;2023-05-10T01:20:40;17.60;99.90
32476;DHT22;18929;48.008;10.882;2023-05-10T01:23:11;17.40;99.90
32476;DHT22;18929;48.008;10.882;2023-05-10T01:25:49;17.40;99.90
32476;DHT22;18929;48.008;10.882;2023-05-10T01:31:11;17.10;99.90
32476;DHT22;18929;48.008;10.882;2023-05-10T01:33:46;17.00;99.90
32476;DHT22;18929;48.008;10.882;2023-05-10T01:36:15;17.20;99.90
32476;DHT22;18929;48.008;10.882;2023-05-10T01:38:46;17.20;99.90
32476;DHT22;18929;48.008;10.882;2023-05-10T01:41:17;17.20;99.90
32476;DHT22;18929;48.008;10.882;2023-05-10T01:43:48;17.30;99.90
32476;DHT22;18929;48.008;10.882;2023-05-10T01:46:17;17.20;99.90
32476;DHT22;18929;48.008;10.882;2023-05-10T01:48:48;17.20;99.90
32476;DHT22;18929;48.008;10.882;2023-05-10T01:51:19;17.10;99.90
32476;DHT22;18929;48.008;10.882;2023-05-10T01:53:48;17.20;99.90
32476;DHT22;18929;48.008;10.882;2023-05-10T01:56:15;17.40;99.90
32476;DHT22;18929;48.008;10.882;2023-05-10T01:58:43;17.40;99.90
32476;DHT22;18929;48.008;10.882;2023-05-10T02:01:12;17.30;99.90
32476;DHT22;18929;48.008;10.882;2023-05-10T02:03:39;17.30;99.90
32476;DHT22;18929;48.008;10.882;2023-05-10T02:06:08;17.20;99.90
32476;DHT22;18929;48.008;10.882;2023-05-10T02:08:35;17.20;99.90
32476;DHT22;18929;48.008;10.882;2023-05-10T02:11:02;17.20;99.90
32476;DHT22;18929;48.008;10.882;2023-05-10T02:13:30;17.00;99.90
32476;DHT22;18929;48.008;10.882;2023-05-10T02:15:59;16.90;99.90
32476;DHT22;18929;48.008;10.882;2023-05-10T02:18:26;16.70;99.90
32476;DHT22;18929;48.008;10.882;2023-05-10T02:20:53;16.60;99.90
32476;DHT22;18929;48.008;10.882;2023-05-10T02:23:23;16.50;99.90
32476;DHT22;18929;48.008;10.882;2023-05-10T02:25:50;16.60;99.90
32476;DHT22;18929;48.008;10.882;2023-05-10T02:28:17;16.80;99.90
32476;DHT22;18929;48.008;10.882;2023-05-10T02:30:45;16.60;99.90
32476;DHT22;18929;48.008;10.882;2023-05-10T02:33:13;16.30;99.90
32476;DHT22;18929;48.008;10.882;2023-05-10T02:35:40;16.10;99.90
32476;DHT22;18929;48.008;10.882;2023-05-10T02:38:07;16.10;99.90
32476;DHT22;18929;48.008;10.882;2023-05-10T02:40:36;16.10;99.90
32476;DHT22;18929;48.008;10.882;2023-05-10T02:43:04;16.10;99.90
32476;DHT22;18929;48.008;10.882;2023-05-10T02:45:31;16.00;99.90
32476;DHT22;18929;48.008;10.882;2023-05-10T02:47:58;16.10;99.90
32476;DHT22;18929;48.008;10.882;2023-05-10T02:50:26;16.20;99.90
32476;DHT22;18929;48.008;10.882;2023-05-10T02:52:54;16.10;99.90
32476;DHT22;18929;48.008;10.882;2023-05-10T02:55:24;16.10;99.90
32476;DHT22;18929;48.008;10.882;2023-05-10T02:57:54;16.10;99.90
32476;DHT22;18929;48.008;10.882;2023-05-10T03:00:23;16.10;99.90
32476;DHT22;18929;48.008;10.882;2023-05-10T03:02:50;15.90;99.90
32476;DHT22;18929;48.008;10.882;2023-05-10T03:05:17;15.80;99.90
32476;DHT22;18929;48.008;10.882;2023-05-10T03:07:44;15.70;99.90
32476;DHT22;18929;48.008;10.882;2023-05-10T03:10:11;15.70;99.90
32476;DHT22;18929;48.008;10.882;2023-05-10T03:12:41;15.80;99.90
32476;DHT22;18929;48.008;10.882;2023-05-10T03:15:19;15.90;99.90
32476;DHT22;18929;48.008;10.882;2023-05-10T03:17:49;15.70;99.90
32476;DHT22;18929;48.008;10.882;2023-05-10T03:20:20;15.60;99.90
32476;DHT22;18929;48.008;10.882;2023-05-10T03:22:51;15.60;99.90
32476;DHT22;18929;48.008;10.882;2023-05-10T03:25:19;15.60;99.90
32476;DHT22;18929;48.008;10.882;2023-05-10T03:27:47;15.50;99.90
32476;DHT22;18929;48.008;10.882;2023-05-10T03:30:15;15.60;99.90
32476;DHT22;18929;48.008;10.882;2023-05-10T03:32:43;15.60;99.90
32476;DHT22;18929;48.008;10.882;2023-05-10T03:35:10;15.50;99.90
32476;DHT22;18929;48.008;10.882;2023-05-10T03:37:37;15.50;99.90
32476;DHT22;18929;48.008;10.882;2023-05-10T03:40:04;15.20;99.90
32476;DHT22;18929;48.008;10.882;2023-05-10T03:42:31;15.20;99.90
32476;DHT22;18929;48.008;10.882;2023-05-10T03:44:58;15.40;99.90
32476;DHT22;18929;48.008;10.882;2023-05-10T03:47:26;15.40;99.90
32476;DHT22;18929;48.008;10.882;2023-05-10T03:49:55;15.30;99.90
32476;DHT22;18929;48.008;10.882;2023-05-10T03:52:21;15.20;99.90
32476;DHT22;18929;48.008;10.882;2023-05-10T03:54:48;15.40;99.90
32476;DHT22;18929;48.008;10.882;2023-05-10T03:57:15;15.30;99.90
32476;DHT22;18929;48.008;10.882;2023-05-10T03:59:42;14.70;99.90
32476;DHT22;18929;48.008;10.882;2023-05-10T04:02:08;15.00;99.90
32476;DHT22;18929;48.008;10.882;2023-05-10T04:04:37;14.70;99.90
32476;DHT22;18929;48.008;10.882;2023-05-10T04:07:03;15.00;99.90
32476;DHT22;18929;48.008;10.882;2023-05-10T04:09:30;15.00;99.90
32476;DHT22;18929;48.008;10.882;2023-05-10T04:11:58;14.60;99.90
32476;DHT22;18929;48.008;10.882;2023-05-10T04:14:25;14.80;99.90
32476;DHT22;18929;48.008;10.882;2023-05-10T04:16:52;15.10;99.90
32476;DHT22;18929;48.008;10.882;2023-05-10T04:19:18;14.40;99.90
32476;DHT22;18929;48.008;10.882;2023-05-10T04:21:46;14.80;99.90
32476;DHT22;18929;48.008;10.882;2023-05-10T04:24:13;14.80;99.90
32476;DHT22;18929;48.008;10.882;2023-05-10T04:26:40;14.80;99.90
32476;DHT22;18929;48.008;10.882;2023-05-10T04:29:07;14.60;99.90
32476;DHT22;18929;48.008;10.882;2023-05-10T04:31:34;14.80;99.90
32476;DHT22;18929;48.008;10.882;2023-05-10T04:34:01;14.90;99.90
32476;DHT22;18929;48.008;10.882;2023-05-10T04:36:35;14.50;99.90
32476;DHT22;18929;48.008;10.882;2023-05-10T04:39:04;14.40;99.90
32476;DHT22;18929;48.008;10.882;2023-05-10T04:41:30;14.30;99.90
32476;DHT22;18929;48.008;10.882;2023-05-10T04:43:57;14.70;99.90
32476;DHT22;18929;48.008;10.882;2023-05-10T04:46:24;14.70;99.90
32476;DHT22;18929;48.008;10.882;2023-05-10T04:48:51;15.30;99.90
32476;DHT22;18929;48.008;10.882;2023-05-10T04:54:14;15.40;99.90
32476;DHT22;18929;48.008;10.882;2023-05-10T04:56:41;15.10;99.90
32476;DHT22;18929;48.008;10.882;2023-05-10T04:59:08;15.10;99.90
32476;DHT22;18929;48.008;10.882;2023-05-10T05:01:35;15.20;99.90
32476;DHT22;18929;48.008;10.882;2023-05-10T05:04:01;15.00;99.90
32476;DHT22;18929;48.008;10.882;2023-05-10T05:06:28;15.30;99.90
32476;DHT22;18929;48.008;10.882;2023-05-10T05:08:55;15.10;99.90
32476;DHT22;18929;48.008;10.882;2023-05-10T05:11:23;15.10;99.90
32476;DHT22;18929;48.008;10.882;2023-05-10T05:13:50;15.10;99.90
32476;DHT22;18929;48.008;10.882;2023-05-10T05:16:17;14.80;99.90
32476;DHT22;18929;48.008;10.882;2023-05-10T05:18:44;14.80;99.90
32476;DHT22;18929;48.008;10.882;2023-05-10T05:21:14;14.80;99.90
32476;DHT22;18929;48.008;10.882;2023-05-10T05:23:41;14.60;99.90
32476;DHT22;18929;48.008;10.882;2023-05-10T05:26:08;14.90;99.90
32476;DHT22;18929;48.008;10.882;2023-05-10T05:28:37;14.60;99.90
32476;DHT22;18929;48.008;10.882;2023-05-10T05:31:04;14.80;99.90
32476;DHT22;18929;48.008;10.882;2023-05-10T05:33:31;14.90;99.90
32476;DHT22;18929;48.008;10.882;2023-05-10T05:36:00;14.70;99.90
32476;DHT22;18929;48.008;10.882;2023-05-10T05:38:26;14.80;99.90
32476;DHT22;18929;48.008;10.882;2023-05-10T05:40:53;15.00;99.90
32476;DHT22;18929;48.008;10.882;2023-05-10T05:43:20;15.10;99.90
32476;DHT22;18929;48.008;10.882;2023-05-10T05:45:49;14.70;99.90
32476;DHT22;18929;48.008;10.882;2023-05-10T05:48:15;14.90;99.90
32476;DHT22;18929;48.008;10.882;2023-05-10T05:50:42;14.70;99.90
32476;DHT22;18929;48.008;10.882;2023-05-10T05:53:09;14.70;99.90
32476;DHT22;18929;48.008;10.882;2023-05-10T05:55:36;14.00;99.90
32476;DHT22;18929;48.008;10.882;2023-05-10T05:58:02;14.30;99.90
32476;DHT22;18929;48.008;10.882;2023-05-10T06:00:29;14.70;99.90
32476;DHT22;18929;48.008;10.882;2023-05-10T06:02:57;14.40;99.90
32476;DHT22;18929;48.008;10.882;2023-05-10T06:05:24;14.70;99.90
32476;DHT22;18929;48.008;10.882;2023-05-10T06:07:51;14.70;99.90
32476;DHT22;18929;48.008;10.882;2023-05-10T06:10:18;14.70;99.90
32476;DHT22;18929;48.008;10.882;2023-05-10T06:12:45;14.80;99.90
32476;DHT22;18929;48.008;10.882;2023-05-10T06:15:12;15.00;99.90
32476;DHT22;18929;48.008;10.882;2023-05-10T06:17:38;15.10;99.90
32476;DHT22;18929;48.008;10.882;2023-05-10T06:20:07;15.00;99.90
32476;DHT22;18929;48.008;10.882;2023-05-10T06:22:34;15.20;99.90
32476;DHT22;18929;48.008;10.882;2023-05-10T06:25:05;15.10;99.90
32476;DHT22;18929;48.008;10.882;2023-05-10T06:27:31;14.80;99.90
32476;DHT22;18929;48.008;10.882;2023-05-10T06:30:08;14.90;99.90
32476;DHT22;18929;48.008;10.882;2023-05-10T06:32:35;14.70;99.90
32476;DHT22;18929;48.008;10.882;2023-05-10T06:35:02;14.70;99.90
32476;DHT22;18929;48.008;10.882;2023-05-10T06:37:30;14.80;99.90
32476;DHT22;18929;48.008;10.882;2023-05-10T06:39:57;14.60;99.90
32476;DHT22;18929;48.008;10.882;2023-05-10T06:42:24;15.00;99.90
32476;DHT22;18929;48.008;10.882;2023-05-10T06:44:51;14.90;99.90
32476;DHT22;18929;48.008;10.882;2023-05-10T06:47:17;14.90;99.90
32476;DHT22;18929;48.008;10.882;2023-05-10T06:49:44;15.00;99.90
32476;DHT22;18929;48.008;10.882;2023-05-10T06:52:11;14.90;99.90
32476;DHT22;18929;48.008;10.882;2023-05-10T06:54:39;14.60;99.90
32476;DHT22;18929;48.008;10.882;2023-05-10T06:57:06;14.50;99.90
32476;DHT22;18929;48.008;10.882;2023-05-10T06:59:33;14.70;99.90
32476;DHT22;18929;48.008;10.882;2023-05-10T07:02:00;14.60;99.90
32476;DHT22;18929;48.008;10.882;2023-05-10T07:04:26;14.70;99.90
32476;DHT22;18929;48.008;10.882;2023-05-10T07:06:53;14.80;99.90
32476;DHT22;18929;48.008;10.882;2023-05-10T07:09:20;15.00;99.90
32476;DHT22;18929;48.008;10.882;2023-05-10T07:11:48;15.00;99.90
32476;DHT22;18929;48.008;10.882;2023-05-10T07:14:23;14.80;99.90
32476;DHT22;18929;48.008;10.882;2023-05-10T07:16:50;14.90;99.90
32476;DHT22;18929;48.008;10.882;2023-05-10T07:19:17;14.20;99.90
32476;DHT22;18929;48.008;10.882;2023-05-10T07:21:44;14.50;99.90
32476;DHT22;18929;48.008;10.882;2023-05-10T07:24:10;14.40;99.90
32476;DHT22;18929;48.008;10.882;2023-05-10T07:26:37;14.60;99.90
32476;DHT22;18929;48.008;10.882;2023-05-10T07:29:05;14.60;99.90
32476;DHT22;18929;48.008;10.882;2023-05-10T07:31:32;14.90;99.90
32476;DHT22;18929;48.008;10.882;2023-05-10T07:33:59;14.70;99.90
32476;DHT22;18929;48.008;10.882;2023-05-10T07:36:26;14.30;99.90
32476;DHT22;18929;48.008;10.882;2023-05-10T07:38:53;14.60;99.90
32476;DHT22;18929;48.008;10.882;2023-05-10T07:41:20;14.70;99.90
32476;DHT22;18929;48.008;10.882;2023-05-10T07:43:47;14.90;99.90
32476;DHT22;18929;48.008;10.882;2023-05-10T07:46:16;15.00;99.90
32476;DHT22;18929;48.008;10.882;2023-05-10T07:48:44;14.90;99.90
32476;DHT22;18929;48.008;10.882;2023-05-10T07:51:11;14.90;99.90
32476;DHT22;18929;48.008;10.882;2023-05-10T07:53:38;15.30;99.90
32476;DHT22;18929;48.008;10.882;2023-05-10T07:56:19;15.00;99.90
32476;DHT22;18929;48.008;10.882;2023-05-10T07:58:54;14.70;99.90
32476;DHT22;18929;48.008;10.882;2023-05-10T08:01:23;14.40;99.90
32476;DHT22;18929;48.008;10.882;2023-05-10T08:03:50;14.70;99.90
32476;DHT22;18929;48.008;10.882;2023-05-10T08:06:18;14.60;99.90
32476;DHT22;18929;48.008;10.882;2023-05-10T08:08:46;14.40;99.90
32476;DHT22;18929;48.008;10.882;2023-05-10T08:11:15;14.60;99.90
32476;DHT22;18929;48.008;10.882;2023-05-10T08:13:42;14.30;99.90
32476;DHT22;18929;48.008;10.882;2023-05-10T08:16:09;14.50;99.90
32476;DHT22;18929;48.008;10.882;2023-05-10T08:18:46;14.80;99.90
32476;DHT22;18929;48.008;10.882;2023-05-10T08:21:21;15.00;99.90
32476;DHT22;18929;48.008;10.882;2023-05-10T08:23:48;14.90;99.90
32476;DHT22;18929;48.008;10.882;2023-05-10T08:26:15;15.00;99.90
32476;DHT22;18929;48.008;10.882;2023-05-10T08:28:42;14.70;99.90
32476;DHT22;18929;48.008;10.882;2023-05-10T08:31:09;14.90;99.90
32476;DHT22;18929;48.008;10.882;2023-05-10T08:33:35;14.80;99.90
32476;DHT22;18929;48.008;10.882;2023-05-10T08:38:53;15.10;99.90
32476;DHT22;18929;48.008;10.882;2023-05-10T08:41:20;15.30;99.90
32476;DHT22;18929;48.008;10.882;2023-05-10T08:43:49;15.00;99.90
32476;DHT22;18929;48.008;10.882;2023-05-10T08:46:17;14.80;99.90
32476;DHT22;18929;48.008;10.882;2023-05-10T08:48:44;14.90;99.90
32476;DHT22;18929;48.008;10.882;2023-05-10T08:51:12;15.10;99.90
32476;DHT22;18929;48.008;10.882;2023-05-10T08:53:40;14.90;99.90
32476;DHT22;18929;48.008;10.882;2023-05-10T08:56:08;14.70;99.90
32476;DHT22;18929;48.008;10.882;2023-05-10T09:01:18;15.00;99.90
32476;DHT22;18929;48.008;10.882;2023-05-10T09:03:59;14.90;99.90
32476;DHT22;18929;48.008;10.882;2023-05-10T09:06:25;15.10;99.90
32476;DHT22;18929;48.008;10.882;2023-05-10T09:08:52;15.20;99.90
32476;DHT22;18929;48.008;10.882;2023-05-10T09:11:21;15.20;99.90
32476;DHT22;18929;48.008;10.882;2023-05-10T09:13:48;15.00;99.90
32476;DHT22;18929;48.008;10.882;2023-05-10T09:16:17;15.30;99.90
32476;DHT22;18929;48.008;10.882;2023-05-10T09:24:18;15.40;99.90
32476;DHT22;18929;48.008;10.882;2023-05-10T09:26:53;15.40;99.90
32476;DHT22;18929;48.008;10.882;2023-05-10T09:29:20;15.10;99.90
32476;DHT22;18929;48.008;10.882;2023-05-10T09:34:30;15.00;99.90
32476;DHT22;18929;48.008;10.882;2023-05-10T09:36:59;15.10;99.90
32476;DHT22;18929;48.008;10.882;2023-05-10T09:39:30;15.10;99.90
32476;DHT22;18929;48.008;10.882;2023-05-10T09:41:59;14.60;99.90
32476;DHT22;18929;48.008;10.882;2023-05-10T09:44:26;14.40;99.90
32476;DHT22;18929;48.008;10.882;2023-05-10T09:49:26;14.60;99.90
32476;DHT22;18929;48.008;10.882;2023-05-10T09:52:00;15.10;99.90
32476;DHT22;18929;48.008;10.882;2023-05-10T09:56:59;15.30;99.90
32476;DHT22;18929;48.008;10.882;2023-05-10T09:59:26;15.20;99.90
32476;DHT22;18929;48.008;10.882;2023-05-10T10:01:55;15.70;99.90
32476;DHT22;18929;48.008;10.882;2023-05-10T10:04:22;15.70;99.90
32476;DHT22;18929;48.008;10.882;2023-05-10T10:06:58;15.80;99.90
32476;DHT22;18929;48.008;10.882;2023-05-10T10:09:25;15.70;99.90
32476;DHT22;18929;48.008;10.882;2023-05-10T10:11:51;15.60;99.90
32476;DHT22;18929;48.008;10.882;2023-05-10T10:14:20;15.70;99.90
32476;DHT22;18929;48.008;10.882;2023-05-10T10:16:48;15.50;99.90
32476;DHT22;18929;48.008;10.882;2023-05-10T10:19:15;15.70;99.90
32476;DHT22;18929;48.008;10.882;2023-05-10T10:21:42;15.60;99.90
32476;DHT22;18929;48.008;10.882;2023-05-10T10:24:09;15.70;99.90
32476;DHT22;18929;48.008;10.882;2023-05-10T10:26:35;15.40;99.90
32476;DHT22;18929;48.008;10.882;2023-05-10T10:29:06;15.30;99.90
32476;DHT22;18929;48.008;10.882;2023-05-10T10:31:39;15.50;99.90
32476;DHT22;18929;48.008;10.882;2023-05-10T10:34:17;15.10;99.90
32476;DHT22;18929;48.008;10.882;2023-05-10T10:36:48;15.40;99.90
32476;DHT22;18929;48.008;10.882;2023-05-10T10:39:15;15.60;99.90
32476;DHT22;18929;48.008;10.882;2023-05-10T10:41:48;15.50;99.90
32476;DHT22;18929;48.008;10.882;2023-05-10T10:44:35;15.00;99.90
32476;DHT22;18929;48.008;10.882;2023-05-10T10:47:06;15.00;99.90
32476;DHT22;18929;48.008;10.882;2023-05-10T10:49:38;15.20;99.90
32476;DHT22;18929;48.008;10.882;2023-05-10T10:54:59;15.30;99.90
32476;DHT22;18929;48.008;10.882;2023-05-10T10:57:26;15.30;99.90
32476;DHT22;18929;48.008;10.882;2023-05-10T11:02:45;15.40;99.90
32476;DHT22;18929;48.008;10.882;2023-05-10T11:07:51;15.30;99.90
32476;DHT22;18929;48.008;10.882;2023-05-10T11:10:19;15.20;99.90
32476;DHT22;18929;48.008;10.882;2023-05-10T11:12:52;15.50;99.90
32476;DHT22;18929;48.008;10.882;2023-05-10T11:15:28;15.40;99.90
32476;DHT22;18929;48.008;10.882;2023-05-10T11:17:56;15.20;99.90
32476;DHT22;18929;48.008;10.882;2023-05-10T11:20:23;15.50;99.90
32476;DHT22;18929;48.008;10.882;2023-05-10T11:22:54;15.60;99.90
32476;DHT22;18929;48.008;10.882;2023-05-10T11:25:26;15.60;99.90
32476;DHT22;18929;48.008;10.882;2023-05-10T11:27:53;15.50;99.90
32476;DHT22;18929;48.008;10.882;2023-05-10T11:30:20;15.50;99.90
32476;DHT22;18929;48.008;10.882;2023-05-10T11:32:47;15.20;99.90
32476;DHT22;18929;48.008;10.882;2023-05-10T11:35:15;15.10;99.90
32476;DHT22;18929;48.008;10.882;2023-05-10T11:37:42;15.50;99.90
32476;DHT22;18929;48.008;10.882;2023-05-10T11:40:11;15.40;99.90
32476;DHT22;18929;48.008;10.882;2023-05-10T11:42:55;15.30;99.90
32476;DHT22;18929;48.008;10.882;2023-05-10T11:45:23;15.40;99.90
32476;DHT22;18929;48.008;10.882;2023-05-10T11:47:50;15.50;99.90
32476;DHT22;18929;48.008;10.882;2023-05-10T11:50:18;15.40;99.90
32476;DHT22;18929;48.008;10.882;2023-05-10T11:52:45;15.40;99.90
32476;DHT22;18929;48.008;10.882;2023-05-10T11:55:11;15.60;99.90
32476;DHT22;18929;48.008;10.882;2023-05-10T11:57:38;15.50;99.90
32476;DHT22;18929;48.008;10.882;2023-05-10T12:03:12;15.60;99.90
32476;DHT22;18929;48.008;10.882;2023-05-10T12:08:32;15.60;99.90
32476;DHT22;18929;48.008;10.882;2023-05-10T12:11:06;15.30;99.90
32476;DHT22;18929;48.008;10.882;2023-05-10T12:13:36;15.20;99.90
32476;DHT22;18929;48.008;10.882;2023-05-10T12:16:12;15.10;99.90
32476;DHT22;18929;48.008;10.882;2023-05-10T12:18:39;14.90;99.90
32476;DHT22;18929;48.008;10.882;2023-05-10T12:21:06;15.30;99.90
32476;DHT22;18929;48.008;10.882;2023-05-10T12:23:34;15.30;99.90
32476;DHT22;18929;48.008;10.882;2023-05-10T12:26:02;15.50;99.90
32476;DHT22;18929;48.008;10.882;2023-05-10T12:28:29;15.80;99.90
32476;DHT22;18929;48.008;10.882;2023-05-10T12:30:57;15.70;99.90
32476;DHT22;18929;48.008;10.882;2023-05-10T12:33:24;15.70;99.90
32476;DHT22;18929;48.008;10.882;2023-05-10T12:35:51;15.80;99.90
32476;DHT22;18929;48.008;10.882;2023-05-10T12:38:25;15.80;99.90
32476;DHT22;18929;48.008;10.882;2023-05-10T12:41:02;15.50;99.90
32476;DHT22;18929;48.008;10.882;2023-05-10T12:43:29;15.40;99.90
32476;DHT22;18929;48.008;10.882;2023-05-10T12:45:56;15.50;99.90
32476;DHT22;18929;48.008;10.882;2023-05-10T12:48:23;15.60;99.90
32476;DHT22;18929;48.008;10.882;2023-05-10T12:50:50;15.10;99.90
32476;DHT22;18929;48.008;10.882;2023-05-10T12:53:17;15.10;99.90
32476;DHT22;18929;48.008;10.882;2023-05-10T12:55:43;14.10;99.90
32476;DHT22;18929;48.008;10.882;2023-05-10T12:58:12;14.10;99.90
32476;DHT22;18929;48.008;10.882;2023-05-10T13:00:38;14.40;99.90
32476;DHT22;18929;48.008;10.882;2023-05-10T13:03:07;14.80;99.90
32476;DHT22;18929;48.008;10.882;2023-05-10T13:05:34;15.00;99.90
32476;DHT22;18929;48.008;10.882;2023-05-10T13:08:01;14.20;99.90
32476;DHT22;18929;48.008;10.882;2023-05-10T13:10:28;14.80;99.90
32476;DHT22;18929;48.008;10.882;2023-05-10T13:12:56;14.90;99.90
32476;DHT22;18929;48.008;10.882;2023-05-10T13:15:24;14.70;99.90
32476;DHT22;18929;48.008;10.882;2023-05-10T13:17:51;14.40;99.90
32476;DHT22;18929;48.008;10.882;2023-05-10T13:20:18;14.40;99.90
32476;DHT22;18929;48.008;10.882;2023-05-10T13:22:44;14.70;99.90
32476;DHT22;18929;48.008;10.882;2023-05-10T13:27:59;14.90;99.90
32476;DHT22;18929;48.008;10.882;2023-05-10T13:30:28;15.10;99.90
32476;DHT22;18929;48.008;10.882;2023-05-10T13:32:55;15.20;99.90
32476;DHT22;18929;48.008;10.882;2023-05-10T13:35:22;15.10;99.90
32476;DHT22;18929;48.008;10.882;2023-05-10T13:37:48;15.10;99.90
32476;DHT22;18929;48.008;10.882;2023-05-10T13:40:15;15.00;99.90
32476;DHT22;18929;48.008;10.882;2023-05-10T13:42:42;15.00;99.90
32476;DHT22;18929;48.008;10.882;2023-05-10T13:45:09;14.70;99.90
32476;DHT22;18929;48.008;10.882;2023-05-10T13:47:38;14.70;99.90
32476;DHT22;18929;48.008;10.882;2023-05-10T13:50:05;13.90;99.90
32476;DHT22;18929;48.008;10.882;2023-05-10T13:52:32;14.30;99.90
32476;DHT22;18929;48.008;10.882;2023-05-10T13:54:59;14.50;99.90
32476;DHT22;18929;48.008;10.882;2023-05-10T13:57:26;14.60;99.90
32476;DHT22;18929;48.008;10.882;2023-05-10T13:59:54;14.40;99.90
32476;DHT22;18929;48.008;10.882;2023-05-10T14:02:22;14.50;99.90
32476;DHT22;18929;48.008;10.882;2023-05-10T14:04:51;14.80;99.90
32476;DHT22;18929;48.008;10.882;2023-05-10T14:07:18;15.10;99.90
32476;DHT22;18929;48.008;10.882;2023-05-10T14:09:44;15.10;99.90
32476;DHT22;18929;48.008;10.882;2023-05-10T14:12:11;14.80;99.90
32476;DHT22;18929;48.008;10.882;2023-05-10T14:14:39;14.50;99.90
32476;DHT22;18929;48.008;10.882;2023-05-10T14:17:06;14.40;99.90
32476;DHT22;18929;48.008;10.882;2023-05-10T14:19:33;14.50;99.90
32476;DHT22;18929;48.008;10.882;2023-05-10T14:22:02;14.30;99.90
32476;DHT22;18929;48.008;10.882;2023-05-10T14:24:29;14.70;99.90
32476;DHT22;18929;48.008;10.882;2023-05-10T14:26:55;14.30;99.90
32476;DHT22;18929;48.008;10.882;2023-05-10T14:29:22;14.40;99.90
32476;DHT22;18929;48.008;10.882;2023-05-10T14:31:49;14.70;99.90
32476;DHT22;18929;48.008;10.882;2023-05-10T14:34:16;14.80;99.90
32476;DHT22;18929;48.008;10.882;2023-05-10T14:36:42;14.60;99.90
32476;DHT22;18929;48.008;10.882;2023-05-10T14:39:11;14.80;99.90
32476;DHT22;18929;48.008;10.882;2023-05-10T14:41:38;14.40;99.90
32476;DHT22;18929;48.008;10.882;2023-05-10T14:44:06;14.90;99.90
32476;DHT22;18929;48.008;10.882;2023-05-10T14:46:39;15.10;99.90
32476;DHT22;18929;48.008;10.882;2023-05-10T14:49:07;14.40;99.90
32476;DHT22;18929;48.008;10.882;2023-05-10T14:51:34;14.60;99.90
32476;DHT22;18929;48.008;10.882;2023-05-10T14:54:02;15.00;99.90
32476;DHT22;18929;48.008;10.882;2023-05-10T14:56:30;15.00;99.90
32476;DHT22;18929;48.008;10.882;2023-05-10T14:58:57;15.20;99.90
32476;DHT22;18929;48.008;10.882;2023-05-10T15:01:24;15.10;99.90
32476;DHT22;18929;48.008;10.882;2023-05-10T15:03:51;14.90;99.90
32476;DHT22;18929;48.008;10.882;2023-05-10T15:06:20;14.80;99.90
32476;DHT22;18929;48.008;10.882;2023-05-10T15:08:49;14.90;99.90
32476;DHT22;18929;48.008;10.882;2023-05-10T15:11:15;14.90;99.90
32476;DHT22;18929;48.008;10.882;2023-05-10T15:13:44;14.80;99.90
32476;DHT22;18929;48.008;10.882;2023-05-10T15:16:11;15.00;99.90
32476;DHT22;18929;48.008;10.882;2023-05-10T15:18:38;14.90;99.90
32476;DHT22;18929;48.008;10.882;2023-05-10T15:21:04;15.10;99.90
32476;DHT22;18929;48.008;10.882;2023-05-10T15:23:31;15.20;99.90
32476;DHT22;18929;48.008;10.882;2023-05-10T15:25:58;15.10;99.90
32476;DHT22;18929;48.008;10.882;2023-05-10T15:28:25;15.00;99.90
32476;DHT22;18929;48.008;10.882;2023-05-10T15:30:53;14.90;99.90
32476;DHT22;18929;48.008;10.882;2023-05-10T15:33:19;15.10;99.90
32476;DHT22;18929;48.008;10.882;2023-05-10T15:35:46;15.00;99.90
32476;DHT22;18929;48.008;10.882;2023-05-10T15:38:13;15.00;99.90
32476;DHT22;18929;48.008;10.882;2023-05-10T15:40:40;15.00;99.90
32476;DHT22;18929;48.008;10.882;2023-05-10T15:43:07;15.10;99.90
32476;DHT22;18929;48.008;10.882;2023-05-10T15:45:33;15.10;99.90
32476;DHT22;18929;48.008;10.882;2023-05-10T15:48:01;15.00;99.90
32476;DHT22;18929;48.008;10.882;2023-05-10T15:50:28;14.90;99.90
32476;DHT22;18929;48.008;10.882;2023-05-10T15:52:55;14.90;99.90
32476;DHT22;18929;48.008;10.882;2023-05-10T15:55:22;14.90;99.90
32476;DHT22;18929;48.008;10.882;2023-05-10T15:57:49;15.00;99.90
32476;DHT22;18929;48.008;10.882;2023-05-10T16:00:16;15.00;99.90
32476;DHT22;18929;48.008;10.882;2023-05-10T16:02:43;14.90;99.90